www.hirschberg-wetter.de
Wetterdaten: aktuell Montag, 18.12.2017 22:00
Datum Zeit Temperatur Luftfeuchte Luftdruck Niederschlag Wind Windrichtung Windrichtung Sonnenschein Helligkeit Niederschlag Taupunkt Windchill
18.12.2017 22:00 -7,0 C 97 % 1027 hPa 0,0 l/m 4,3 km/h (1 Bft) N-NO 20 0 min 0 lux 0 min -7,4 C -7,0 C
18.12.2017 21:00 -6,8 C 97 % 1027 hPa 0,0 l/m 6,1 km/h (2 Bft) NO 45 0 min 0 lux 0 min -7,2 C -9,9 C
18.12.2017 20:00 -5,3 C 95 % 1027 hPa 0,0 l/m 4,3 km/h (1 Bft) N-NO 30 0 min 0 lux 0 min -6,0 C -5,3 C
18.12.2017 19:00 -3,8 C 95 % 1026 hPa 0,0 l/m 4,0 km/h (1 Bft) NO 45 0 min 0 lux 0 min -4,5 C -3,8 C
18.12.2017 18:00 -4,0 C 95 % 1025 hPa 0,0 l/m 2,5 km/h (1 Bft) O 85 0 min 0 lux 0 min -4,7 C -4,0 C
18.12.2017 17:00 -1,9 C 92 % 1025 hPa 0,0 l/m 5,4 km/h (1 Bft) NO 50 0 min 0 lux 0 min -3,0 C -3,9 C
18.12.2017 16:00 0,2 C 87 % 1024 hPa 0,0 l/m 5,4 km/h (1 Bft) S 185 0 min 1,05 klux 0 min -1,7 C -1,5 C
18.12.2017 15:00 0,7 C 85 % 1023 hPa 0,0 l/m 6,1 km/h (2 Bft) SW 230 25 min 3,74 klux 0 min -1,5 C -1,3 C
18.12.2017 14:00 1,3 C 84 % 1023 hPa 0,0 l/m 10,4 km/h (2 Bft) S-SO 160 60 min 21,9 klux 0 min -1,1 C -1,9 C
18.12.2017 13:00 0,8 C 87 % 1023 hPa 0,0 l/m 7,6 km/h (2 Bft) S-SO 160 1 min 14,7 klux 0 min -1,1 C -1,7 C
18.12.2017 12:00 0,4 C 88 % 1023 hPa 0,0 l/m 7,2 km/h (2 Bft) S-SO 160 0 min 8,32 klux 0 min -1,3 C -2,0 C
18.12.2017 11:00 0,1 C 92 % 1022 hPa 0,0 l/m 16,2 km/h (3 Bft) S-SO 150 0 min 5,63 klux 0 min -1,0 C -4,5 C
18.12.2017 10:00 -0,1 C 93 % 1022 hPa 0,0 l/m 12,6 km/h (3 Bft) S-SO 155 0 min 3,51 klux 0 min -1,1 C -4,1 C
18.12.2017 09:00 -0,4 C 94 % 1021 hPa 0,0 l/m 9,0 km/h (2 Bft) S-SO 160 0 min 1,90 klux 0 min -1,2 C -3,5 C
18.12.2017 08:00 -0,7 C 93 % 1021 hPa 0,0 l/m 8,3 km/h (2 Bft) S-SO 160 0 min 452 lux 0 min -1,7 C -3,7 C
18.12.2017 07:00 -0,9 C 91 % 1021 hPa 0,0 l/m 3,6 km/h (1 Bft) O-SO 120 0 min 0 lux 0 min -2,2 C -0,9 C
18.12.2017 06:00 -0,5 C 90 % 1021 hPa 0,0 l/m 6,5 km/h (2 Bft) SW 230 0 min 0 lux 0 min -1,9 C -2,8 C
18.12.2017 05:00 -0,4 C 92 % 1021 hPa 0,0 l/m 5,0 km/h (1 Bft) S 190 0 min 0 lux 0 min -1,5 C -2,0 C
18.12.2017 04:00 -0,6 C 94 % 1021 hPa 0,0 l/m 6,8 km/h (2 Bft) S 170 0 min 0 lux 0 min -1,4 C -3,0 C
18.12.2017 03:00 -0,3 C 92 % 1022 hPa 0,0 l/m 9,4 km/h (2 Bft) S 185 0 min 0 lux 0 min -1,4 C -3,5 C
18.12.2017 02:00 -0,3 C 93 % 1022 hPa 0,0 l/m 4,0 km/h (1 Bft) S 180 0 min 0 lux 0 min -1,3 C -0,3 C
18.12.2017 01:00 -0,3 C 94 % 1022 hPa 0,0 l/m 6,5 km/h (2 Bft) SW 225 0 min 0 lux 0 min -1,1 C -2,6 C
18.12.2017 00:01 -0,2 C 94 % 1022 hPa 0,0 l/m 5,8 km/h (2 Bft) S-SW 200 0 min 0 lux 0 min -1,0 C -2,2 C
_ Min-Zeit 21:24 14:23 05:46 - 00:19 - - - - - 21:04 21:26
Minimum _ -7,3 C 82 % 1020 hPa - 0,0 km/h (0 Bft) - - - - - -7,7 C -11,5 C
_ Max-Zeit 14:21 21:34 21:25 00:01 14:10 - - 12:55 13:03 00:01 13:08 15:32
Maximum _ 1,5 C 98 % 1028 hPa 0,0 l/m 18,4 km/h
SO (3 Bft)
- - 1 min 32,0 klux 0 min -0,9 C 0,5 C
Durchschnitt _ -1,2 C 92 % 1023 hPa #0,0 l/m 7,2 km/h (2 Bft) S-SO - #1:26 h 3,04 klux #0 min. -2,4 C -3,5 C
Jens Knrnschild